Time;durP1;ratioP1;P1;durP2;ratioP2;P2;SDS_P1;SDS_P2;PMS_P1;PMS_P2;Temp;Humidity;BMP_temperature;BMP_pressure;BME280_temperature;BME280_humidity;BME280_pressure;Samples;Min_cycle;Max_cycle;Signal;HPM_P1;HPM_P2
2023/02/06 00:02:04;;;;;;;;;;;;;;;28.63;67.26;101008.84;5094179;27;66582;-39
2023/02/06 00:04:35;;;;;;;;;;;;;;;28.64;65.46;101013.19;5094689;27;69054;-38
2023/02/06 00:07:05;;;;;;;;;;;;;;;28.67;65.01;101007.41;5089682;27;65493;-39
2023/02/06 00:09:35;;;;;;;;;;;;;;;28.71;66.95;101016.75;5066878;27;68270;-38
2023/02/06 00:12:05;;;;;;;;;;;;;;;28.73;67.45;101014.69;5082066;27;66439;-38
2023/02/06 00:14:36;;;;;;;;;;;;;;;28.72;64.56;101023.81;5091639;27;70411;-38
2023/02/06 00:17:06;;;;;;;;;;;;;;;28.72;63.79;101013.88;5085632;27;66632;-38
2023/02/06 00:19:37;;;;;;;;;;;;;;;28.73;63.01;101020.09;5090104;27;69243;-40
2023/02/06 00:22:09;;;;;;;;;;;;;;;28.75;62.61;101018.00;5076716;27;66368;-39
2023/02/06 00:24:42;;;;;;;;;;;;;;;28.74;62.60;101024.44;5089065;27;70149;-38
2023/02/06 00:27:12;;;;;;;;;;;;;;;28.74;62.39;101032.53;5095945;27;65731;-38
2023/02/06 00:29:43;;;;;;;;;;;;;;;28.76;62.17;101027.78;5076081;27;70696;-38
2023/02/06 00:32:14;;;;;;;;;;;;;;;28.79;61.98;101040.03;5089338;27;65421;-38
2023/02/06 00:34:44;;;;;;;;;;;;;;;28.78;61.94;101033.81;5085734;27;69462;-38
2023/02/06 00:37:16;;;;;;;;;;;;;;;28.80;62.10;101041.69;5061460;27;66928;-38
2023/02/06 00:39:46;;;;;;;;;;;;;;;28.80;61.85;101047.94;5093755;27;70402;-38
2023/02/06 00:42:16;;;;;;;;;;;;;;;28.81;61.77;101048.78;5079110;27;65410;-40
2023/02/06 00:44:47;;;;;;;;;;;;;;;28.81;61.27;101052.31;5096936;27;69763;-38
2023/02/06 00:47:17;;;;;;;;;;;;;;;28.82;61.47;101051.25;5092650;27;65484;-39
2023/02/06 00:49:47;;;;;;;;;;;;;;;28.83;61.43;101044.00;5094930;27;69787;-38
2023/02/06 00:52:19;;;;;;;;;;;;;;;28.84;61.30;101054.59;5094460;27;65307;-41
2023/02/06 00:54:52;;;;;;;;;;;;;;;28.83;60.93;101052.91;5075102;27;63887;-39
2023/02/06 00:57:22;;;;;;;;;;;;;;;28.84;61.20;101059.19;5096315;27;66663;-38
2023/02/06 00:59:53;;;;;;;;;;;;;;;28.84;60.75;101060.00;5082142;27;69717;-38
2023/02/06 01:02:23;;;;;;;;;;;;;;;28.85;61.09;101061.66;5096009;27;66657;-39
2023/02/06 01:04:53;;;;;;;;;;;;;;;28.87;61.12;101070.41;5090541;27;69917;-39
2023/02/06 01:07:24;;;;;;;;;;;;;;;28.88;61.05;101071.22;5096508;27;67052;-38
2023/02/06 01:09:54;;;;;;;;;;;;;;;28.89;60.91;101073.72;5098920;27;70566;-40
2023/02/06 01:12:26;;;;;;;;;;;;;;;28.90;61.00;101075.38;5094496;27;66158;-38
2023/02/06 01:14:56;;;;;;;;;;;;;;;28.92;60.38;101083.31;5098090;27;69397;-40
2023/02/06 01:17:27;;;;;;;;;;;;;;;28.93;60.31;101079.56;5088069;27;65505;-39
2023/02/06 01:19:58;;;;;;;;;;;;;;;28.94;60.58;101082.03;5091323;27;69179;-39
2023/02/06 01:22:28;;;;;;;;;;;;;;;28.95;60.44;101078.31;5076167;27;65842;-38
2023/02/06 01:24:58;;;;;;;;;;;;;;;28.97;60.40;101086.19;5061827;28;69714;-38
2023/02/06 01:27:28;;;;;;;;;;;;;;;28.98;60.39;101082.50;5090785;27;66833;-39
2023/02/06 01:29:58;;;;;;;;;;;;;;;29.00;60.20;101090.38;5076453;27;70585;-38
2023/02/06 01:32:29;;;;;;;;;;;;;;;29.01;59.88;101092.06;5076813;27;65534;-38
2023/02/06 01:34:59;;;;;;;;;;;;;;;29.02;59.82;101088.31;5093390;27;69252;-38
2023/02/06 01:37:30;;;;;;;;;;;;;;;29.04;59.76;101091.69;5094440;27;66116;-38
2023/02/06 01:40:00;;;;;;;;;;;;;;;29.05;60.06;101094.16;5074777;27;70867;-38
2023/02/06 01:42:33;;;;;;;;;;;;;;;29.07;59.73;101096.66;5091554;27;65173;-40
2023/02/06 01:45:22;;;;;;;;;;;;;;;29.07;59.91;101093.97;5076731;27;69935;-37
2023/02/06 01:47:58;;;;;;;;;;;;;;;29.11;59.52;101089.81;5092220;27;66884;-39
2023/02/06 01:50:30;;;;;;;;;;;;;;;29.12;59.93;101095.03;5094977;27;70007;-39
2023/02/06 01:53:01;;;;;;;;;;;;;;;29.13;59.49;101093.97;5093485;27;66371;-39
2023/02/06 01:55:33;;;;;;;;;;;;;;;29.15;59.90;101093.78;5093072;27;70086;-37
2023/02/06 01:58:04;;;;;;;;;;;;;;;29.15;59.62;101089.22;5075597;27;66178;-38
2023/02/06 02:00:34;;;;;;;;;;;;;;;29.18;59.40;101085.28;5093188;27;69049;-38
2023/02/06 02:03:05;;;;;;;;;;;;;;;29.19;59.82;101084.22;5070864;27;65933;-39
2023/02/06 02:05:37;;;;;;;;;;;;;;;29.21;59.22;101082.16;5098070;27;70222;-39
2023/02/06 02:08:11;;;;;;;;;;;;;;;29.24;59.18;101091.72;5091740;27;66067;-38
2023/02/06 02:10:41;;;;;;;;;;;;;;;29.26;59.56;101095.88;5095053;27;70286;-39
2023/02/06 02:13:11;;;;;;;;;;;;;;;29.27;59.03;101091.31;5097947;27;65719;-39
2023/02/06 02:16:01;;;;;;;;;;;;;;;29.29;59.45;101100.88;5072350;27;70230;-37
2023/02/06 02:18:37;;;;;;;;;;;;;;;29.30;59.01;101091.72;5088372;27;66353;-40
2023/02/06 02:21:10;;;;;;;;;;;;;;;29.33;59.38;101096.72;5093861;27;70185;-39
2023/02/06 02:24:07;;;;;;;;;;;;;;;29.35;59.41;101097.34;5085439;27;66887;-38
2023/02/06 02:26:51;;;;;;;;;;;;;;;29.37;58.89;101098.00;5087560;27;69678;-38
2023/02/06 02:29:25;;;;;;;;;;;;;;;29.40;59.33;101102.16;5097017;27;65788;-39
2023/02/06 02:32:09;;;;;;;;;;;;;;;29.43;59.13;101100.91;5092028;27;70325;-40
2023/02/06 02:34:51;;;;;;;;;;;;;;;29.45;59.11;101093.41;5095130;27;65932;-38
2023/02/06 02:37:30;;;;;;;;;;;;;;;29.46;59.21;101101.34;5064157;27;70622;-39
2023/02/06 02:40:23;;;;;;;;;;;;;;;29.49;59.08;101094.69;5074807;27;66191;-39
2023/02/06 02:42:57;;;;;;;;;;;;;;;29.51;59.14;101089.91;5100998;27;70867;-40
2023/02/06 02:45:31;;;;;;;;;;;;;;;29.54;58.84;101095.72;5075469;27;66837;-42
2023/02/06 02:48:02;;;;;;;;;;;;;;;29.56;58.94;101095.50;5067816;27;69768;-38
2023/02/06 02:50:33;;;;;;;;;;;;;;;29.58;58.52;101094.25;5095711;27;65715;-38
2023/02/06 02:53:04;;;;;;;;;;;;;;;29.60;58.95;101088.66;5066178;27;69604;-38
2023/02/06 02:55:34;;;;;;;;;;;;;;;29.62;58.41;101092.00;5085915;27;66628;-38
2023/02/06 02:58:08;;;;;;;;;;;;;;;29.65;58.87;101085.38;5085492;27;69125;-39
2023/02/06 03:00:40;;;;;;;;;;;;;;;29.67;58.87;101092.25;5094912;27;65468;-39
2023/02/06 03:03:12;;;;;;;;;;;;;;;29.69;58.25;101090.16;5075539;27;69735;-38
2023/02/06 03:06:06;;;;;;;;;;;;;;;29.71;58.72;101082.66;5097983;27;66393;-38
2023/02/06 03:08:50;;;;;;;;;;;;;;;29.73;58.15;101080.59;5089047;27;69183;-38
2023/02/06 03:11:23;;;;;;;;;;;;;;;29.76;58.28;101073.94;5092981;27;66176;-38
2023/02/06 03:14:01;;;;;;;;;;;;;;;29.78;58.59;101072.69;5083943;27;70546;-39
2023/02/06 03:16:31;;;;;;;;;;;;;;;29.81;58.11;101066.03;5067820;27;65488;-40
2023/02/06 03:19:05;;;;;;;;;;;;;;;29.82;58.44;101068.53;5100347;27;69823;-39
2023/02/06 03:21:35;;;;;;;;;;;;;;;29.84;58.00;101066.44;5080313;27;66379;-39
2023/02/06 03:24:20;;;;;;;;;;;;;;;29.89;57.75;101067.69;5094347;27;70320;-38
2023/02/06 03:26:54;;;;;;;;;;;;;;;29.91;57.87;101060.19;5097839;27;65714;-39
2023/02/06 03:29:25;;;;;;;;;;;;;;;29.94;57.60;101046.25;5083517;27;70702;-38
2023/02/06 03:31:57;;;;;;;;;;;;;;;29.97;57.55;101043.94;5098635;27;66175;-39
2023/02/06 03:34:33;;;;;;;;;;;;;;;29.99;57.89;101035.66;5093012;27;69762;-39
2023/02/06 03:37:04;;;;;;;;;;;;;;;30.01;57.71;101033.56;5093323;27;66513;-39
2023/02/06 03:39:34;;;;;;;;;;;;;;;30.04;57.40;101016.91;5100434;27;70121;-38
2023/02/06 03:42:05;;;;;;;;;;;;;;;30.06;57.89;101020.22;5098567;27;66646;-39
2023/02/06 03:44:38;;;;;;;;;;;;;;;30.09;57.38;101014.41;5102294;27;70555;-38
2023/02/06 03:47:10;;;;;;;;;;;;;;;30.11;57.56;101009.59;5095102;27;66334;-39
2023/02/06 03:49:41;;;;;;;;;;;;;;;30.14;57.77;101003.75;5101177;27;69665;-39
2023/02/06 03:52:15;;;;;;;;;;;;;;;30.16;57.65;100993.56;5092607;27;65716;-38
2023/02/06 03:54:48;;;;;;;;;;;;;;;30.18;57.37;100991.47;5092959;27;70049;-39
2023/02/06 03:57:20;;;;;;;;;;;;;;;30.22;57.25;100992.72;5093216;27;67398;-38
2023/02/06 03:59:53;;;;;;;;;;;;;;;30.24;57.00;100977.13;5099451;27;69866;-39
2023/02/06 04:02:25;;;;;;;;;;;;;;;30.26;57.38;100977.75;5089728;27;65014;-41
2023/02/06 04:04:55;;;;;;;;;;;;;;;30.28;57.33;100981.09;5095390;27;70402;-39
2023/02/06 04:07:26;;;;;;;;;;;;;;;30.30;57.31;100978.16;5085337;27;65497;-39
2023/02/06 04:09:57;;;;;;;;;;;;;;;30.34;57.00;100962.31;5081984;27;69735;-41
2023/02/06 04:12:27;;;;;;;;;;;;;;;30.35;56.70;100961.28;5101048;27;66059;-39
2023/02/06 04:15:00;;;;;;;;;;;;;;;30.38;56.80;100960.84;5094248;27;69992;-40
2023/02/06 04:17:31;;;;;;;;;;;;;;;30.40;56.75;100956.06;5063076;27;64822;-39
2023/02/06 04:20:18;;;;;;;;;;;;;;;30.44;56.64;100946.44;5092108;27;70184;-40
2023/02/06 04:22:49;;;;;;;;;;;;;;;30.45;56.79;100942.69;5078267;27;66028;-39
2023/02/06 04:25:19;;;;;;;;;;;;;;;30.48;56.83;100944.97;5071843;27;69115;-39
2023/02/06 04:27:50;;;;;;;;;;;;;;;30.50;56.56;100929.31;5094426;27;66417;-38
2023/02/06 04:30:20;;;;;;;;;;;;;;;30.52;56.24;100926.41;5088314;27;70389;-40
2023/02/06 04:32:53;;;;;;;;;;;;;;;30.56;56.29;100930.34;5097775;27;66348;-39
2023/02/06 04:35:24;;;;;;;;;;;;;;;30.58;55.90;100910.13;5098573;27;70363;-40
2023/02/06 04:37:54;;;;;;;;;;;;;;;30.61;55.79;100917.81;5094885;27;66165;-38
2023/02/06 04:40:24;;;;;;;;;;;;;;;30.63;55.96;100909.47;5099837;27;70628;-40
2023/02/06 04:42:54;;;;;;;;;;;;;;;30.64;55.86;100909.25;5090036;27;65958;-39
2023/02/06 04:45:27;;;;;;;;;;;;;;;30.65;56.00;100905.50;5075399;27;69161;-38
2023/02/06 04:47:57;;;;;;;;;;;;;;;30.66;55.75;100890.91;5085589;27;67103;-39
2023/02/06 04:50:30;;;;;;;;;;;;;;;30.68;56.14;100904.25;5073803;27;70588;-43
2023/02/06 04:53:00;;;;;;;;;;;;;;;30.69;55.59;100885.06;5055504;27;67410;-37
2023/02/06 04:55:30;;;;;;;;;;;;;;;30.71;55.67;100893.81;5093904;27;71655;-41
2023/02/06 04:58:00;;;;;;;;;;;;;;;30.73;56.07;100882.75;5092851;27;66364;-43
2023/02/06 05:00:31;;;;;;;;;;;;;;;30.75;55.28;100871.69;5097363;27;71155;-39
2023/02/06 05:03:01;;;;;;;;;;;;;;;30.77;55.30;100864.19;5092462;27;66109;-42
2023/02/06 05:05:32;;;;;;;;;;;;;;;30.79;55.48;100864.81;5092000;27;70149;-38
2023/02/06 05:08:05;;;;;;;;;;;;;;;30.81;55.68;100854.59;5088525;27;65297;-39
2023/02/06 05:10:35;;;;;;;;;;;;;;;30.84;55.51;100856.84;5104179;27;70391;-38
2023/02/06 05:13:06;;;;;;;;;;;;;;;30.85;55.65;100845.81;5088241;27;66354;-42
2023/02/06 05:15:36;;;;;;;;;;;;;;;30.87;55.23;100832.03;5084428;27;70364;-40
2023/02/06 05:18:07;;;;;;;;;;;;;;;30.89;55.40;100830.78;5093234;27;65714;-39
2023/02/06 05:20:37;;;;;;;;;;;;;;;30.91;54.97;100830.56;5083548;27;69845;-39
2023/02/06 05:23:07;;;;;;;;;;;;;;;30.92;55.39;100830.34;5094834;27;66834;-39
2023/02/06 05:25:40;;;;;;;;;;;;;;;30.94;55.09;100816.56;5095046;27;69959;-43
2023/02/06 05:28:11;;;;;;;;;;;;;;;30.97;55.46;100813.41;5100360;27;66364;-41
2023/02/06 05:30:41;;;;;;;;;;;;;;;30.99;54.98;100808.59;5098618;27;70432;-38
2023/02/06 05:33:12;;;;;;;;;;;;;;;31.01;55.27;100801.09;5076416;27;66690;-41
2023/02/06 05:35:42;;;;;;;;;;;;;;;31.03;54.80;100801.69;5093026;27;70909;-39
2023/02/06 05:38:12;;;;;;;;;;;;;;;31.04;54.95;100795.22;5085990;27;66458;-40
2023/02/06 05:40:45;;;;;;;;;;;;;;;31.06;54.64;100790.41;5094811;27;69739;-39
2023/02/06 05:43:15;;;;;;;;;;;;;;;31.08;54.60;100780.16;5095300;27;66896;-39
2023/02/06 05:45:46;;;;;;;;;;;;;;;31.11;54.71;100778.91;5100266;27;69985;-43
2023/02/06 05:48:16;;;;;;;;;;;;;;;31.13;54.80;100763.25;5093208;27;65570;-38
2023/02/06 05:50:49;;;;;;;;;;;;;;;31.14;54.83;100765.72;5091541;27;70400;-43
2023/02/06 05:53:20;;;;;;;;;;;;;;;31.19;54.65;100758.81;5093714;27;65709;-39
2023/02/06 05:55:50;;;;;;;;;;;;;;;31.21;54.73;100751.28;5096133;27;70174;-43
2023/02/06 05:58:20;;;;;;;;;;;;;;;31.23;54.42;100744.59;5097031;27;65579;-39
2023/02/06 06:00:57;;;;;;;;;;;;;;;31.26;54.06;100743.28;5099042;27;69342;-41
2023/02/06 06:03:27;;;;;;;;;;;;;;;31.28;54.57;100742.00;5101370;27;65913;-38
2023/02/06 06:06:00;;;;;;;;;;;;;;;31.31;54.34;100730.72;5096773;27;69490;-40
2023/02/06 06:08:31;;;;;;;;;;;;;;;31.33;54.14;100731.31;5104297;27;66356;-40
2023/02/06 06:11:01;;;;;;;;;;;;;;;31.35;54.41;100715.66;5102992;27;70177;-42
2023/02/06 06:13:31;;;;;;;;;;;;;;;31.37;53.95;100718.16;5102996;27;66610;-40
2023/02/06 06:16:01;;;;;;;;;;;;;;;31.39;54.09;100710.66;5095228;27;71555;-39
2023/02/06 06:18:32;;;;;;;;;;;;;;;31.41;54.05;100705.81;5096796;27;65690;-42
2023/02/06 06:21:06;;;;;;;;;;;;;;;31.44;54.08;100705.38;5093101;27;70487;-39
2023/02/06 06:23:36;;;;;;;;;;;;;;;31.47;53.93;100694.06;5101783;27;66025;-40
2023/02/06 06:26:06;;;;;;;;;;;;;;;31.48;53.90;100687.59;5106051;27;69504;-40
2023/02/06 06:28:37;;;;;;;;;;;;;;;31.51;54.10;100672.75;5079656;27;66558;-41
2023/02/06 06:31:10;;;;;;;;;;;;;;;31.54;53.78;100669.59;5106762;27;70264;-43
2023/02/06 06:33:40;;;;;;;;;;;;;;;31.56;53.86;100665.56;5085482;27;66688;-38
2023/02/06 06:36:12;;;;;;;;;;;;;;;31.58;53.41;100660.75;5104336;27;70175;-40
2023/02/06 06:39:07;;;;;;;;;;;;;;;31.62;53.68;100655.69;5100807;27;65012;-39
2023/02/06 06:41:39;;;;;;;;;;;;;;;31.65;53.31;100655.25;5105707;27;69173;-39
2023/02/06 06:44:09;;;;;;;;;;;;;;;31.65;53.53;100633.56;5093558;27;65601;-41
2023/02/06 06:46:42;;;;;;;;;;;;;;;31.69;53.34;100633.91;5100082;27;70100;-44
2023/02/06 06:49:12;;;;;;;;;;;;;;;31.71;53.58;100627.22;5090510;27;65183;-42
2023/02/06 06:51:42;;;;;;;;;;;;;;;31.73;53.28;100630.53;5099582;27;69672;-41
2023/02/06 06:54:14;;;;;;;;;;;;;;;31.77;53.06;100625.44;5097569;27;65974;-39
2023/02/06 06:56:44;;;;;;;;;;;;;;;31.77;53.28;100617.31;5099939;27;69866;-39
2023/02/06 06:59:15;;;;;;;;;;;;;;;31.80;53.05;100608.72;5103592;27;66740;-38
2023/02/06 07:01:45;;;;;;;;;;;;;;;31.83;53.08;100609.06;5104393;27;69663;-40
2023/02/06 07:04:15;;;;;;;;;;;;;;;31.86;53.06;100599.63;5105329;27;66073;-41
2023/02/06 07:06:45;;;;;;;;;;;;;;;31.88;53.15;100600.22;5074157;27;69741;-43
2023/02/06 07:09:15;;;;;;;;;;;;;;;31.90;52.98;100586.41;5079324;27;66862;-39
2023/02/06 07:11:45;;;;;;;;;;;;;;;31.91;52.92;100588.94;5093356;27;70622;-39
2023/02/06 07:14:16;;;;;;;;;;;;;;;31.93;53.11;100581.41;5095789;27;65902;-40
2023/02/06 07:16:47;;;;;;;;;;;;;;;31.96;52.68;100580.09;5092584;27;69963;-40
2023/02/06 07:19:17;;;;;;;;;;;;;;;31.99;52.67;100575.03;5099911;27;66341;-39
2023/02/06 07:21:47;;;;;;;;;;;;;;;32.00;52.95;100565.81;5098096;27;69872;-39
2023/02/06 07:24:17;;;;;;;;;;;;;;;32.04;52.49;100575.16;5089847;27;65942;-41
2023/02/06 07:26:48;;;;;;;;;;;;;;;32.08;52.70;100571.97;5091601;27;70418;-39
2023/02/06 07:29:18;;;;;;;;;;;;;;;32.10;52.66;100565.25;5094505;27;66950;-38
2023/02/06 07:31:49;;;;;;;;;;;;;;;32.12;52.77;100565.00;5096264;27;70180;-39
2023/02/06 07:34:19;;;;;;;;;;;;;;;32.13;52.85;100570.19;5097352;27;65982;-39
2023/02/06 07:36:50;;;;;;;;;;;;;;;32.13;52.52;100564.78;5101430;27;69818;-41
2023/02/06 07:39:20;;;;;;;;;;;;;;;32.18;52.37;100564.03;5083540;27;66770;-40
2023/02/06 07:41:50;;;;;;;;;;;;;;;32.20;52.46;100567.34;5094512;27;70269;-39
2023/02/06 07:44:22;;;;;;;;;;;;;;;32.21;52.17;100555.44;5096027;27;66490;-38
2023/02/06 07:46:52;;;;;;;;;;;;;;;32.21;52.42;100555.44;5093278;27;69355;-41
2023/02/06 07:49:22;;;;;;;;;;;;;;;32.24;52.08;100554.97;5084236;27;66350;-38
2023/02/06 07:51:52;;;;;;;;;;;;;;;32.26;52.32;100553.69;5095628;27;69293;-41
2023/02/06 07:54:23;;;;;;;;;;;;;;;32.27;52.14;100549.06;5087596;27;66607;-41
2023/02/06 07:56:56;;;;;;;;;;;;;;;32.29;52.11;100557.81;5089768;27;71242;-41
2023/02/06 07:59:26;;;;;;;;;;;;;;;32.30;51.89;100554.03;5084292;27;66840;-42
2023/02/06 08:01:56;;;;;;;;;;;;;;;32.32;52.02;100546.47;5089291;27;70771;-40
2023/02/06 08:04:33;;;;;;;;;;;;;;;32.32;51.96;100545.63;5061016;27;65737;-41
2023/02/06 08:07:04;;;;;;;;;;;;;;;32.34;52.05;100541.59;5095926;27;69203;-42
2023/02/06 08:09:34;;;;;;;;;;;;;;;32.13;51.84;100510.50;5086269;27;67105;-40
2023/02/06 08:12:05;;;;;;;;;;;;;;;32.39;51.93;100551.75;5098689;27;71333;-40
2023/02/06 08:14:35;;;;;;;;;;;;;;;32.40;51.84;100548.81;5095556;27;66298;-40
2023/02/06 08:17:08;;;;;;;;;;;;;;;32.43;51.73;100551.06;5093638;27;70143;-39
2023/02/06 08:19:38;;;;;;;;;;;;;;;32.45;51.60;100550.81;5079695;27;64469;-40
2023/02/06 08:22:10;;;;;;;;;;;;;;;32.47;51.93;100549.53;5077484;27;69500;-40
2023/02/06 08:24:40;;;;;;;;;;;;;;;32.52;51.58;100556.16;5094550;27;65560;-39
2023/02/06 08:27:10;;;;;;;;;;;;;;;32.53;51.60;100557.78;5095898;27;70644;-41
2023/02/06 08:29:41;;;;;;;;;;;;;;;32.56;51.69;100547.25;5091504;27;66744;-40
2023/02/06 08:32:12;;;;;;;;;;;;;;;32.60;51.46;100555.78;5091684;27;69550;-42
2023/02/06 08:34:42;;;;;;;;;;;;;;;32.63;51.23;100552.56;5095692;27;65651;-40
2023/02/06 08:37:12;;;;;;;;;;;;;;;32.65;51.40;100555.84;5093697;27;69742;-41
2023/02/06 08:39:43;;;;;;;;;;;;;;;32.67;51.50;100556.44;5081502;27;66917;-40
2023/02/06 08:42:13;;;;;;;;;;;;;;;32.68;51.30;100558.09;5071749;27;69518;-39
2023/02/06 08:44:43;;;;;;;;;;;;;;;32.70;51.31;100558.69;5099700;27;66960;-39
2023/02/06 08:47:15;;;;;;;;;;;;;;;32.70;51.22;100558.69;5097615;27;70787;-40
2023/02/06 08:49:45;;;;;;;;;;;;;;;32.71;51.35;100554.91;5072928;27;65975;-41
2023/02/06 08:52:15;;;;;;;;;;;;;;;32.74;51.35;100562.59;5096496;27;70524;-39
2023/02/06 08:54:45;;;;;;;;;;;;;;;32.71;51.38;100572.03;5098593;27;67401;-40
2023/02/06 08:57:15;;;;;;;;;;;;;;;32.74;51.31;100576.16;5100528;27;69949;-41
2023/02/06 08:59:46;;;;;;;;;;;;;;;32.74;51.23;100578.88;5099433;27;66602;-39
2023/02/06 09:02:16;;;;;;;;;;;;;;;32.76;51.07;100576.72;5084840;27;70610;-43
2023/02/06 09:04:46;;;;;;;;;;;;;;;32.77;51.16;100575.69;5096953;27;66091;-41
2023/02/06 09:07:16;;;;;;;;;;;;;;;32.79;51.10;100576.28;5082056;27;70113;-40
2023/02/06 09:09:47;;;;;;;;;;;;;;;32.81;50.97;100582.28;5095683;27;66538;-40
2023/02/06 09:12:17;;;;;;;;;;;;;;;32.84;50.97;100579.06;5070539;27;70400;-39
2023/02/06 09:14:48;;;;;;;;;;;;;;;32.85;50.96;100578.03;5099572;27;65342;-40
2023/02/06 09:17:21;;;;;;;;;;;;;;;32.88;50.89;100582.97;5065915;27;69957;-41
2023/02/06 09:19:52;;;;;;;;;;;;;;;32.74;51.43;100580.78;5099860;27;65016;-40
2023/02/06 09:22:23;;;;;;;;;;;;;;;32.55;52.56;100582.81;5079957;27;69470;-41
2023/02/06 09:24:53;;;;;;;;;;;;;;;32.41;53.37;100585.75;5088803;27;67218;-41
2023/02/06 09:27:24;;;;;;;;;;;;;;;32.33;53.81;100591.53;5041407;27;68877;-42
2023/02/06 09:29:55;;;;;;;;;;;;;;;32.27;53.96;100587.06;5072138;27;65949;-42
2023/02/06 09:32:25;;;;;;;;;;;;;;;32.23;54.12;100591.31;5087654;27;70642;-40
2023/02/06 09:34:55;;;;;;;;;;;;;;;32.19;54.41;100590.97;5089732;27;67540;-41
2023/02/06 09:37:26;;;;;;;;;;;;;;;32.16;54.36;100596.03;5088845;27;68930;-41
2023/02/06 09:39:56;;;;;;;;;;;;;;;32.13;54.34;100596.50;5091352;27;65450;-43
2023/02/06 09:42:26;;;;;;;;;;;;;;;32.12;54.72;100595.66;5073762;27;69848;-41
2023/02/06 09:45:05;;;;;;;;;;;;;;;32.10;54.78;100602.41;5081260;27;65754;-41
2023/02/06 09:47:38;;;;;;;;;;;;;;;32.07;54.67;100608.28;5069582;27;69936;-42
2023/02/06 09:50:23;;;;;;;;;;;;;;;32.07;54.96;100611.00;5089357;27;66609;-40
2023/02/06 09:53:08;;;;;;;;;;;;;;;32.05;55.02;100611.25;5092669;27;69003;-41
2023/02/06 09:55:38;;;;;;;;;;;;;;;32.02;54.87;100607.13;5067103;27;65618;-41
2023/02/06 09:58:08;;;;;;;;;;;;;;;32.03;54.93;100603.31;5086711;27;70331;-42
2023/02/06 10:00:44;;;;;;;;;;;;;;;31.98;54.77;100600.53;5088772;27;66263;-40
2023/02/06 10:03:20;;;;;;;;;;;;;;;31.99;54.72;100602.16;5091046;27;69777;-42
2023/02/06 10:06:04;;;;;;;;;;;;;;;31.98;55.08;100605.94;5093560;27;66317;-42
2023/02/06 10:08:34;;;;;;;;;;;;;;;32.00;55.69;100609.22;5087938;27;69657;-42
2023/02/06 10:11:10;;;;;;;;;;;;;;;32.00;55.08;100619.25;5067642;27;63858;-40
2023/02/06 10:13:43;;;;;;;;;;;;;;;32.00;53.76;100624.69;5088534;27;70346;-42
2023/02/06 10:16:34;;;;;;;;;;;;;;;32.02;53.23;100612.53;5090768;27;66562;-41
2023/02/06 10:19:12;;;;;;;;;;;;;;;32.03;52.99;100613.38;5082039;27;69866;-41
2023/02/06 10:21:46;;;;;;;;;;;;;;;32.01;53.09;100616.31;5091068;27;66890;-40
2023/02/06 10:24:25;;;;;;;;;;;;;;;32.01;53.01;100616.31;5089800;27;70859;-41
2023/02/06 10:26:58;;;;;;;;;;;;;;;32.02;52.77;100614.44;5094045;27;65744;-42
2023/02/06 10:29:30;;;;;;;;;;;;;;;31.98;53.00;100619.50;5093442;27;69774;-40
2023/02/06 10:32:01;;;;;;;;;;;;;;;31.98;53.37;100624.94;5065432;27;66446;-41
2023/02/06 10:34:37;;;;;;;;;;;;;;;31.97;53.86;100619.72;5087508;27;69625;-42
2023/02/06 10:37:15;;;;;;;;;;;;;;;32.00;53.63;100625.50;5090257;27;66797;-41
2023/02/06 10:39:58;;;;;;;;;;;;;;;31.95;53.46;100638.13;5092716;27;70012;-41
2023/02/06 10:42:50;;;;;;;;;;;;;;;31.92;54.49;100635.88;5100138;27;66541;-43
2023/02/06 10:45:31;;;;;;;;;;;;;;;31.91;55.54;100637.78;5079968;27;69172;-40
2023/02/06 10:48:02;;;;;;;;;;;;;;;31.88;56.91;100632.78;5099114;27;67056;-41
2023/02/06 10:50:50;;;;;;;;;;;;;;;32.08;56.02;100637.09;5101135;27;69768;-41
2023/02/06 10:53:24;;;;;;;;;;;;;;;32.21;55.23;100626.00;5070614;27;66514;-41
2023/02/06 10:56:07;;;;;;;;;;;;;;;32.30;54.64;100635.44;5100973;27;70510;-43
2023/02/06 10:58:40;;;;;;;;;;;;;;;32.36;54.54;100637.22;5100631;27;65428;-43
2023/02/06 11:01:12;;;;;;;;;;;;;;;32.41;54.38;100648.19;5081913;27;69921;-41
2023/02/06 11:04:13;;;;;;;;;;;;;;;32.46;54.24;100642.09;5076034;27;66232;-42
2023/02/06 11:06:45;;;;;;;;;;;;;;;32.49;55.02;100653.31;5096914;27;69572;-41
2023/02/06 11:09:15;;;;;;;;;;;;;;;32.51;55.48;100663.09;5096118;27;66135;-41
2023/02/06 11:11:50;;;;;;;;;;;;;;;32.52;56.23;100660.16;5100506;27;70233;-41
2023/02/06 11:14:25;;;;;;;;;;;;;;;32.49;55.85;100666.88;5093826;27;67613;-42
2023/02/06 11:16:58;;;;;;;;;;;;;;;32.51;55.81;100666.63;5094418;27;70054;-41
2023/02/06 11:19:29;;;;;;;;;;;;;;;32.53;56.39;100672.66;5093494;27;66101;-42
2023/02/06 11:22:14;;;;;;;;;;;;;;;32.55;56.58;100683.28;5095302;27;70226;-43
2023/02/06 11:25:02;;;;;;;;;;;;;;;32.55;56.46;100680.56;5092673;27;67201;-42
2023/02/06 11:27:34;;;;;;;;;;;;;;;32.52;56.47;100687.31;5089605;27;70301;-42
2023/02/06 11:30:20;;;;;;;;;;;;;;;32.52;56.21;100691.91;5089225;27;65558;-42
2023/02/06 11:32:55;;;;;;;;;;;;;;;32.51;56.29;100690.22;5091957;27;69918;-45
2023/02/06 11:35:45;;;;;;;;;;;;;;;32.51;55.88;100695.66;5095287;27;66284;-41
2023/02/06 11:38:19;;;;;;;;;;;;;;;32.47;55.96;100698.84;5088476;27;70058;-41
2023/02/06 11:40:54;;;;;;;;;;;;;;;32.47;55.58;100701.56;5096611;27;67087;-41
2023/02/06 11:43:25;;;;;;;;;;;;;;;32.47;55.44;100712.44;5082473;27;69412;-42
2023/02/06 11:46:27;;;;;;;;;;;;;;;32.44;55.46;100707.44;5088340;27;66787;-44
2023/02/06 11:48:58;;;;;;;;;;;;;;;32.42;55.09;100715.00;5041527;28;70325;-42
2023/02/06 11:51:46;;;;;;;;;;;;;;;32.41;55.01;100712.53;5087525;27;67071;-42
2023/02/06 11:54:19;;;;;;;;;;;;;;;32.40;55.21;100717.13;5100595;27;68891;-42
2023/02/06 11:57:06;;;;;;;;;;;;;;;32.38;55.20;100719.25;5081804;27;66717;-42
2023/02/06 11:59:48;;;;;;;;;;;;;;;32.37;55.06;100723.00;5091775;27;70632;-42
2023/02/06 12:02:29;;;;;;;;;;;;;;;32.36;55.02;100737.66;5076112;27;66376;-40
2023/02/06 12:05:10;;;;;;;;;;;;;;;32.33;55.02;100732.69;5081001;27;69681;-42
2023/02/06 12:07:40;;;;;;;;;;;;;;;32.34;55.40;100738.94;5081336;27;66561;-44
2023/02/06 12:10:15;;;;;;;;;;;;;;;32.32;55.95;100741.06;5092302;27;69861;-42
2023/02/06 12:13:06;;;;;;;;;;;;;;;32.29;56.42;100747.81;5100652;27;67186;-45
2023/02/06 12:15:46;;;;;;;;;;;;;;;32.30;56.32;100744.03;5082765;27;70556;-42
2023/02/06 12:18:37;;;;;;;;;;;;;;;32.26;56.65;100753.66;5089009;27;66355;-44
2023/02/06 12:21:15;;;;;;;;;;;;;;;32.26;56.71;100759.09;5088381;27;69440;-41
2023/02/06 12:23:53;;;;;;;;;;;;;;;32.24;56.38;100755.81;5090439;27;66469;-41
2023/02/06 12:26:27;;;;;;;;;;;;;;;32.24;56.21;100762.06;5088927;27;70014;-42
2023/02/06 12:29:08;;;;;;;;;;;;;;;32.22;56.37;100769.59;5089167;27;65662;-43
2023/02/06 12:31:58;;;;;;;;;;;;;;;32.08;57.47;100770.03;5095226;27;69791;-42
2023/02/06 12:35:02;;;;;;;;;;;;;;;31.93;58.09;100779.44;5089929;27;65998;-42
2023/02/06 12:37:39;;;;;;;;;;;;;;;31.75;58.51;100774.00;5072372;27;70771;-41
2023/02/06 12:40:27;;;;;;;;;;;;;;;31.67;58.81;100782.44;5096575;27;66121;-47
2023/02/06 12:43:02;;;;;;;;;;;;;;;31.60;59.33;100796.09;5088434;27;70620;-45
2023/02/06 12:46:08;;;;;;;;;;;;;;;31.55;59.48;100801.38;5092931;27;66770;-43
2023/02/06 12:48:38;;;;;;;;;;;;;;;31.51;59.62;100800.16;5031816;28;70218;-44
2023/02/06 12:51:18;;;;;;;;;;;;;;;31.44;59.69;100802.97;5076916;27;67088;-43
2023/02/06 12:53:55;;;;;;;;;;;;;;;31.40;59.84;100807.19;5094243;27;70502;-42
2023/02/06 12:56:25;;;;;;;;;;;;;;;31.36;59.40;100805.97;5075220;27;67194;-43
2023/02/06 12:58:56;;;;;;;;;;;;;;;31.33;59.88;100815.34;5092175;27;69627;-43
2023/02/06 13:01:32;;;;;;;;;;;;;;;31.33;59.70;100819.94;5090772;27;65653;-42
2023/02/06 13:04:09;;;;;;;;;;;;;;;31.31;59.80;100820.16;5081040;27;70452;-43
2023/02/06 13:06:48;;;;;;;;;;;;;;;31.30;60.92;100817.69;5093543;27;67257;-42
2023/02/06 13:09:30;;;;;;;;;;;;;;;31.31;60.95;100822.03;5092363;27;69453;-42